Time;durP1;ratioP1;P1;durP2;ratioP2;P2;SDS_P1;SDS_P2;PMS_P1;PMS_P2;Temp;Humidity;BMP_temperature;BMP_pressure;BME280_temperature;BME280_humidity;BME280_pressure;Samples;Min_cycle;Max_cycle;Signal;HPM_P1;HPM_P2
2023/06/21 00:00:24;;;;;;;13.32;11.70;;;16.00;99.90;;;;;;5288390;28;20068;-71
2023/06/21 00:02:56;;;;;;;15.73;11.68;;;15.80;99.90;;;;;;5288362;28;20419;-71
2023/06/21 00:05:26;;;;;;;14.43;12.20;;;15.90;99.90;;;;;;5288259;28;20066;-71
2023/06/21 00:07:58;;;;;;;12.98;11.77;;;15.90;99.90;;;;;;5288092;28;20134;-72
2023/06/21 00:10:30;;;;;;;17.02;14.48;;;15.90;99.90;;;;;;5288202;28;20469;-72
2023/06/21 00:13:01;;;;;;;17.00;12.93;;;16.00;99.90;;;;;;5288231;28;20047;-72
2023/06/21 00:15:31;;;;;;;15.82;13.18;;;16.00;99.90;;;;;;5288041;28;20086;-72
2023/06/21 00:18:03;;;;;;;17.00;15.50;;;15.80;99.90;;;;;;5287928;28;20020;-71
2023/06/21 00:20:34;;;;;;;15.68;14.15;;;16.00;99.90;;;;;;5287940;28;20031;-71
2023/06/21 00:23:07;;;;;;;17.35;10.80;;;16.00;99.90;;;;;;5288238;28;20023;-71
2023/06/21 00:25:38;;;;;;;11.38;10.18;;;16.00;99.90;;;;;;5288118;28;20059;-72
2023/06/21 00:28:09;;;;;;;11.68;10.45;;;16.10;99.90;;;;;;5287959;28;20070;-72
2023/06/21 00:30:39;;;;;;;11.52;9.88;;;16.00;99.90;;;;;;5287928;28;20462;-72
2023/06/21 00:33:10;;;;;;;13.50;10.35;;;16.00;99.90;;;;;;5270905;28;20031;-72
2023/06/21 00:35:41;;;;;;;14.80;10.55;;;15.90;99.90;;;;;;5292045;28;20039;-72
2023/06/21 00:38:12;;;;;;;13.55;9.90;;;15.90;99.90;;;;;;5291929;28;20019;-72
2023/06/21 00:40:43;;;;;;;15.73;10.60;;;16.00;99.90;;;;;;5291877;28;20023;-71
2023/06/21 00:43:16;;;;;;;10.65;9.57;;;15.90;99.90;;;;;;5291797;28;20027;-72
2023/06/21 00:45:48;;;;;;;10.93;9.13;;;15.90;99.90;;;;;;5291886;28;20059;-72
2023/06/21 00:48:19;;;;;;;10.60;9.40;;;16.10;99.90;;;;;;5291777;28;20039;-71
2023/06/21 00:50:50;;;;;;;12.10;8.82;;;16.00;99.90;;;;;;5292276;28;20024;-72
2023/06/21 00:53:21;;;;;;;13.80;9.82;;;16.00;99.90;;;;;;5292555;28;20039;-72
2023/06/21 00:55:52;;;;;;;11.88;9.50;;;15.80;99.90;;;;;;5292266;28;20548;-72
2023/06/21 00:58:24;;;;;;;12.75;9.43;;;15.70;99.90;;;;;;5291726;28;20511;-72
2023/06/21 01:00:55;;;;;;;13.30;9.00;;;15.70;99.90;;;;;;5291686;28;20596;-72
2023/06/21 01:03:26;;;;;;;16.83;9.35;;;15.90;99.90;;;;;;5291603;28;20066;-72
2023/06/21 01:06:18;;;;;;;11.30;10.20;;;15.90;99.90;;;;;;5273199;28;20030;-72
2023/06/21 01:09:22;;;;;;;11.80;10.60;;;15.80;99.90;;;;;;5291348;28;20443;-71
2023/06/21 01:12:22;;;;;;;13.15;10.48;;;15.90;99.90;;;;;;5291467;28;20031;-72
2023/06/21 01:15:00;;;;;;;12.80;10.45;;;15.70;99.90;;;;;;5291358;28;20032;-72
2023/06/21 01:17:37;;;;;;;15.35;9.80;;;15.90;99.90;;;;;;5291035;28;20081;-72
2023/06/21 01:20:18;;;;;;;11.93;9.77;;;16.00;99.90;;;;;;5291246;28;20391;-72
2023/06/21 01:23:12;;;;;;;11.00;9.95;;;15.80;99.90;;;;;;5291196;28;20057;-72
2023/06/21 01:26:04;;;;;;;11.75;9.95;;;15.60;99.90;;;;;;5290930;28;20035;-72
2023/06/21 01:29:10;;;;;;;14.65;10.13;;;15.50;99.90;;;;;;5290718;28;20047;-71
2023/06/21 01:31:44;;;;;;;10.55;8.63;;;15.70;99.90;;;;;;5290775;28;20028;-71
2023/06/21 01:34:17;;;;;;;11.55;8.80;;;15.60;99.90;;;;;;5290862;28;20432;-72
2023/06/21 01:36:48;;;;;;;10.20;9.00;;;15.60;99.90;;;;;;5290884;28;20442;-72
2023/06/21 01:39:18;;;;;;;11.25;9.98;;;15.50;99.90;;;;;;5290717;28;20111;-72
2023/06/21 01:41:49;;;;;;;15.43;9.43;;;15.30;99.90;;;;;;5291039;28;20028;-72
2023/06/21 01:44:21;;;;;;;10.75;7.63;;;15.40;99.90;;;;;;5290629;28;20434;-71
2023/06/21 01:46:53;;;;;;;9.45;8.05;;;15.30;99.90;;;;;;5290371;28;20031;-72
2023/06/21 01:49:26;;;;;;;10.93;8.75;;;15.30;99.90;;;;;;5290492;28;20106;-72
2023/06/21 01:51:58;;;;;;;12.32;9.65;;;15.40;99.90;;;;;;5290413;28;20012;-72
2023/06/21 01:54:29;;;;;;;10.52;9.52;;;15.60;99.90;;;;;;5290566;28;20028;-72
2023/06/21 01:57:01;;;;;;;11.35;8.30;;;15.60;99.90;;;;;;5290258;28;20050;-71
2023/06/21 01:59:33;;;;;;;9.55;8.65;;;15.30;99.90;;;;;;5290239;28;20055;-71
2023/06/21 02:02:06;;;;;;;12.93;10.38;;;15.30;99.90;;;;;;5290271;28;20513;-71
2023/06/21 02:04:38;;;;;;;13.70;9.20;;;15.10;99.90;;;;;;5290294;28;20024;-71
2023/06/21 02:07:13;;;;;;;13.85;8.88;;;15.30;99.90;;;;;;5290163;28;20093;-71
2023/06/21 02:09:45;;;;;;;9.52;8.38;;;15.10;99.90;;;;;;5290269;28;20466;-71
2023/06/21 02:12:16;;;;;;;10.60;8.38;;;15.40;99.90;;;;;;5290279;28;20038;-72
2023/06/21 02:14:47;;;;;;;12.27;8.70;;;15.60;99.90;;;;;;5290052;28;20030;-72
2023/06/21 02:17:18;;;;;;;14.38;11.15;;;15.30;99.90;;;;;;5289876;28;20027;-71
2023/06/21 02:19:49;;;;;;;10.88;8.30;;;15.30;99.90;;;;;;5290020;28;20049;-72
2023/06/21 02:22:20;;;;;;;10.13;9.13;;;15.20;99.90;;;;;;5289932;28;20490;-71
2023/06/21 02:24:51;;;;;;;10.18;9.18;;;15.10;99.90;;;;;;5271577;28;20031;-72
2023/06/21 02:27:22;;;;;;;13.32;10.75;;;15.00;99.90;;;;;;5289657;28;20054;-72
2023/06/21 02:29:53;;;;;;;11.30;8.90;;;15.20;99.90;;;;;;5289485;28;20028;-72
2023/06/21 02:32:24;;;;;;;14.65;10.50;;;15.20;99.90;;;;;;5289759;28;20016;-71
2023/06/21 02:34:54;;;;;;;13.05;9.15;;;15.40;99.90;;;;;;5289709;28;20020;-71
2023/06/21 02:37:29;;;;;;;12.23;8.18;;;15.30;99.90;;;;;;5289549;28;20098;-71
2023/06/21 02:40:09;;;;;;;13.20;9.95;;;15.10;99.90;;;;;;5289542;28;20020;-72
2023/06/21 02:42:41;;;;;;;13.63;9.93;;;15.10;99.90;;;;;;5289729;28;20129;-71
2023/06/21 02:45:11;;;;;;;16.02;9.00;;;15.00;99.90;;;;;;5289803;28;20031;-72
2023/06/21 02:47:42;;;;;;;10.60;9.55;;;15.20;99.90;;;;;;5289342;28;20429;-71
2023/06/21 02:50:16;;;;;;;11.27;10.18;;;15.10;99.90;;;;;;5289205;28;20016;-72
2023/06/21 02:52:47;;;;;;;14.30;9.23;;;15.20;99.90;;;;;;5289403;28;20015;-72
2023/06/21 02:55:18;;;;;;;13.38;8.98;;;15.20;99.90;;;;;;5288952;28;20016;-71
2023/06/21 02:57:48;;;;;;;12.40;8.65;;;15.20;99.90;;;;;;5288517;28;20043;-72
2023/06/21 03:00:23;;;;;;;12.48;9.38;;;15.40;99.90;;;;;;5289299;28;20019;-72
2023/06/21 03:03:00;;;;;;;10.93;8.13;;;15.40;99.90;;;;;;5288921;28;20037;-72
2023/06/21 03:05:33;;;;;;;10.02;8.13;;;15.50;99.90;;;;;;5288999;28;20072;-71
2023/06/21 03:08:07;;;;;;;13.23;8.55;;;15.50;99.90;;;;;;5270549;28;20410;-72
2023/06/21 03:10:39;;;;;;;12.77;9.40;;;15.30;99.90;;;;;;5289017;28;20073;-72
2023/06/21 03:13:10;;;;;;;10.98;9.77;;;15.40;99.90;;;;;;5288872;28;20024;-71
2023/06/21 03:15:40;;;;;;;18.38;11.20;;;15.40;99.90;;;;;;5288807;28;20049;-71
2023/06/21 03:18:13;;;;;;;14.23;9.73;;;15.50;99.90;;;;;;5288752;28;20023;-72
2023/06/21 03:20:44;;;;;;;12.30;9.32;;;15.50;99.90;;;;;;5288806;28;20118;-72
2023/06/21 03:23:15;;;;;;;13.07;8.63;;;15.70;99.90;;;;;;5288698;28;20016;-71
2023/06/21 03:25:46;;;;;;;14.95;9.88;;;15.70;99.90;;;;;;5288551;28;20512;-72
2023/06/21 03:28:16;;;;;;;11.65;9.07;;;15.80;99.90;;;;;;5288770;28;20130;-72
2023/06/21 03:30:47;;;;;;;12.43;8.73;;;15.60;99.90;;;;;;5288916;28;20027;-72
2023/06/21 03:33:18;;;;;;;13.13;10.00;;;15.70;99.90;;;;;;5288850;28;20024;-72
2023/06/21 03:35:49;;;;;;;12.05;9.43;;;15.70;99.90;;;;;;5289067;28;20034;-71
2023/06/21 03:38:20;;;;;;;11.70;10.45;;;16.00;99.90;;;;;;5288923;28;20126;-71
2023/06/21 03:40:51;;;;;;;14.90;10.15;;;15.80;99.90;;;;;;5288696;28;20098;-71
2023/06/21 03:43:22;;;;;;;11.82;9.93;;;15.80;99.90;;;;;;5288698;28;20080;-72
2023/06/21 03:45:53;;;;;;;13.43;9.90;;;16.00;99.90;;;;;;5288464;28;20024;-72
2023/06/21 03:48:24;;;;;;;12.98;10.68;;;16.20;99.90;;;;;;5288507;28;20031;-72
2023/06/21 03:50:55;;;;;;;11.65;10.32;;;16.10;99.90;;;;;;5288992;28;20023;-72
2023/06/21 03:53:27;;;;;;;11.23;10.02;;;16.40;99.90;;;;;;5288616;28;20032;-71
2023/06/21 03:55:58;;;;;;;14.40;12.32;;;16.40;99.90;;;;;;5288198;28;20104;-72
2023/06/21 03:58:28;;;;;;;13.00;11.75;;;16.40;99.90;;;;;;5288197;28;20134;-72
2023/06/21 04:00:59;;;;;;;14.50;12.98;;;16.40;99.90;;;;;;5288298;28;20051;-71
2023/06/21 04:03:30;;;;;;;17.67;13.05;;;16.70;99.90;;;;;;5288320;28;20118;-71
2023/06/21 04:06:01;;;;;;;13.82;12.20;;;16.50;99.90;;;;;;5288313;28;20023;-72
2023/06/21 04:08:32;;;;;;;13.88;11.52;;;16.50;99.90;;;;;;5289968;28;20080;-72
2023/06/21 04:11:02;;;;;;;13.75;12.30;;;16.50;99.90;;;;;;5292654;28;20019;-72
2023/06/21 04:13:34;;;;;;;14.88;13.45;;;16.50;99.90;;;;;;5292406;28;20356;-72
2023/06/21 04:16:04;;;;;;;13.55;11.45;;;16.60;99.90;;;;;;5292275;28;20061;-72
2023/06/21 04:18:35;;;;;;;13.85;12.65;;;16.50;99.90;;;;;;5292257;28;20429;-71
2023/06/21 04:21:06;;;;;;;13.98;12.68;;;16.80;99.90;;;;;;5292327;28;20026;-71
2023/06/21 04:23:37;;;;;;;14.85;13.45;;;17.00;99.90;;;;;;5292621;28;20480;-72
2023/06/21 04:26:08;;;;;;;14.50;13.20;;;17.10;99.90;;;;;;5273831;28;20043;-72
2023/06/21 04:28:40;;;;;;;15.18;13.95;;;17.20;99.90;;;;;;5292148;28;20031;-71
2023/06/21 04:31:11;;;;;;;16.95;15.18;;;17.30;99.90;;;;;;5291950;28;20062;-72
2023/06/21 04:33:41;;;;;;;16.83;15.20;;;17.50;99.90;;;;;;5291986;28;20427;-72
2023/06/21 04:36:17;;;;;;;17.80;16.20;;;17.50;99.90;;;;;;5292208;28;20043;-72
2023/06/21 04:38:49;;;;;;;17.25;15.85;;;17.50;99.90;;;;;;5292285;28;20019;-72
2023/06/21 04:41:19;;;;;;;19.02;17.42;;;17.60;99.90;;;;;;5292155;28;20485;-71
2023/06/21 04:43:51;;;;;;;18.98;17.05;;;17.70;99.90;;;;;;5292024;28;20024;-72
2023/06/21 04:46:23;;;;;;;18.58;16.77;;;18.10;99.90;;;;;;5291802;28;20118;-72
2023/06/21 04:48:54;;;;;;;18.27;16.33;;;17.90;99.90;;;;;;5291849;28;20420;-72
2023/06/21 04:51:25;;;;;;;17.58;15.93;;;18.10;99.90;;;;;;5291902;28;20592;-72
2023/06/21 04:54:00;;;;;;;19.80;17.70;;;18.00;99.90;;;;;;5291936;28;20031;-72
2023/06/21 04:56:31;;;;;;;21.90;17.80;;;18.30;99.90;;;;;;5291924;28;20051;-72
2023/06/21 04:59:03;;;;;;;19.35;17.35;;;18.40;99.90;;;;;;5291763;28;20062;-72
2023/06/21 05:01:34;;;;;;;22.75;19.85;;;18.60;99.90;;;;;;5291591;28;20032;-72
2023/06/21 05:04:05;;;;;;;20.55;18.45;;;18.60;99.90;;;;;;5291537;28;20106;-71
2023/06/21 05:06:36;;;;;;;22.83;16.73;;;18.70;99.90;;;;;;5291402;28;20042;-72
2023/06/21 05:09:08;;;;;;;20.23;17.45;;;18.80;99.90;;;;;;5291254;28;20443;-72
2023/06/21 05:11:39;;;;;;;20.17;18.25;;;19.00;99.90;;;;;;5291200;28;20031;-72
2023/06/21 05:14:10;;;;;;;23.10;18.40;;;19.10;99.90;;;;;;5291183;28;20088;-72
2023/06/21 05:16:41;;;;;;;21.65;19.38;;;19.20;99.90;;;;;;5291141;28;20055;-72
2023/06/21 05:19:12;;;;;;;23.98;20.27;;;19.40;99.90;;;;;;5290833;28;20039;-72
2023/06/21 05:21:44;;;;;;;21.73;19.45;;;19.20;99.90;;;;;;5291270;28;20047;-72
2023/06/21 05:24:15;;;;;;;21.25;19.10;;;19.60;99.90;;;;;;5291077;28;20647;-72
2023/06/21 05:26:45;;;;;;;19.40;17.45;;;19.90;99.90;;;;;;5290803;28;20043;-72
2023/06/21 05:29:16;;;;;;;20.55;18.42;;;19.90;99.90;;;;;;5290846;28;20039;-72
2023/06/21 05:31:47;;;;;;;21.88;19.58;;;20.10;99.90;;;;;;5290863;28;20020;-72
2023/06/21 05:34:18;;;;;;;20.92;18.73;;;20.10;99.90;;;;;;5290796;28;20023;-73
2023/06/21 05:36:49;;;;;;;21.40;19.40;;;21.80;99.90;;;;;;5290840;28;20032;-71
2023/06/21 05:39:19;;;;;;;21.13;19.13;;;19.10;99.90;;;;;;5290744;28;20020;-72
2023/06/21 05:41:50;;;;;;;21.42;19.23;;;20.40;99.90;;;;;;5290628;28;20042;-72
2023/06/21 05:44:21;;;;;;;19.42;17.42;;;20.60;99.90;;;;;;5290740;28;20344;-72
2023/06/21 05:46:52;;;;;;;18.20;16.25;;;20.70;99.90;;;;;;5290595;28;20038;-72
2023/06/21 05:49:23;;;;;;;17.48;15.32;;;20.80;99.90;;;;;;5290461;28;20031;-72
2023/06/21 05:51:54;;;;;;;14.48;12.90;;;20.70;99.90;;;;;;5290397;28;20051;-72
2023/06/21 05:54:24;;;;;;;15.93;14.07;;;20.80;99.90;;;;;;5290181;28;20058;-72
2023/06/21 05:56:56;;;;;;;14.60;13.30;;;21.00;99.90;;;;;;5289907;28;20448;-72
2023/06/21 05:59:26;;;;;;;13.45;12.35;;;21.20;99.90;;;;;;5290380;28;20035;-72
2023/06/21 06:01:57;;;;;;;12.98;11.98;;;21.30;99.90;;;;;;5290059;28;20019;-72
2023/06/21 06:04:28;;;;;;;16.33;14.93;;;21.40;99.90;;;;;;5290495;28;20074;-72
2023/06/21 06:06:59;;;;;;;12.38;11.35;;;21.60;99.90;;;;;;5289771;28;20521;-72
2023/06/21 06:09:30;;;;;;;10.98;10.07;;;21.70;99.90;;;;;;5289703;28;20024;-72
2023/06/21 06:12:01;;;;;;;10.73;9.68;;;22.00;99.90;;;;;;5289854;28;20384;-71
2023/06/21 06:14:32;;;;;;;10.25;9.23;;;22.10;99.90;;;;;;5290083;28;20041;-72
2023/06/21 06:17:03;;;;;;;9.57;8.70;;;22.20;99.90;;;;;;5289966;28;20038;-72
2023/06/21 06:19:34;;;;;;;10.13;9.23;;;22.40;99.90;;;;;;5289897;28;20471;-72
2023/06/21 06:22:05;;;;;;;9.10;8.30;;;22.50;99.90;;;;;;5289956;28;20021;-72
2023/06/21 06:24:36;;;;;;;9.73;8.82;;;22.90;99.90;;;;;;5289873;28;20593;-72
2023/06/21 06:27:07;;;;;;;9.43;8.52;;;22.70;99.90;;;;;;5289714;28;20692;-72
2023/06/21 06:29:38;;;;;;;9.32;8.43;;;22.80;99.90;;;;;;5289695;28;20028;-72
2023/06/21 06:32:09;;;;;;;9.02;8.10;;;23.00;99.90;;;;;;5288783;28;20050;-72
2023/06/21 06:34:40;;;;;;;9.10;8.25;;;23.00;99.90;;;;;;5289702;28;20363;-72
2023/06/21 06:37:11;;;;;;;9.15;8.35;;;23.00;99.90;;;;;;5289511;28;20042;-72
2023/06/21 06:39:42;;;;;;;10.80;8.20;;;23.20;99.90;;;;;;5289518;28;20046;-72
2023/06/21 06:42:13;;;;;;;8.57;7.80;;;23.30;99.90;;;;;;5289518;28;20479;-72
2023/06/21 06:44:44;;;;;;;9.82;9.02;;;23.40;99.90;;;;;;5289644;28;20003;-72
2023/06/21 06:47:15;;;;;;;9.20;7.60;;;23.40;99.90;;;;;;5289531;28;20035;-72
2023/06/21 06:49:45;;;;;;;8.15;7.35;;;23.50;99.90;;;;;;5289471;28;20096;-72
2023/06/21 06:52:16;;;;;;;9.35;8.18;;;23.60;99.90;;;;;;5289361;28;20106;-72
2023/06/21 06:54:47;;;;;;;10.13;9.15;;;23.70;99.90;;;;;;5289482;28;20019;-72
2023/06/21 06:57:18;;;;;;;9.32;7.18;;;23.70;99.90;;;;;;5288948;28;20082;-72
2023/06/21 06:59:49;;;;;;;10.52;9.73;;;23.70;99.90;;;;;;5289364;28;20027;-72
2023/06/21 07:02:20;;;;;;;10.85;8.13;;;23.90;99.90;;;;;;5289309;28;20062;-72
2023/06/21 07:04:51;;;;;;;7.57;6.82;;;24.10;99.90;;;;;;5289410;28;20047;-72
2023/06/21 07:07:22;;;;;;;7.10;6.50;;;24.00;99.90;;;;;;5289252;28;20035;-72
2023/06/21 07:09:53;;;;;;;7.85;7.22;;;24.20;99.90;;;;;;5289210;28;20024;-72
2023/06/21 07:12:24;;;;;;;7.28;6.68;;;24.20;99.90;;;;;;5289182;28;20036;-72
2023/06/21 07:14:54;;;;;;;10.80;6.93;;;24.30;99.90;;;;;;5289505;28;20011;-71
2023/06/21 07:17:26;;;;;;;7.80;7.25;;;24.40;99.90;;;;;;5289393;28;20036;-72
2023/06/21 07:19:57;;;;;;;7.95;7.35;;;24.60;99.90;;;;;;5289149;28;20023;-72
2023/06/21 07:22:28;;;;;;;8.43;7.85;;;24.30;99.90;;;;;;5288809;28;20371;-72
2023/06/21 07:24:59;;;;;;;9.77;8.43;;;24.60;99.90;;;;;;5288892;28;20042;-72
2023/06/21 07:27:30;;;;;;;9.88;8.95;;;24.60;99.90;;;;;;5288610;28;20098;-72
2023/06/21 07:30:02;;;;;;;10.65;9.57;;;24.70;99.90;;;;;;5288637;28;20789;-72
2023/06/21 07:32:33;;;;;;;11.02;9.93;;;24.70;99.90;;;;;;5288704;28;20035;-72
2023/06/21 07:35:04;;;;;;;10.02;8.98;;;24.80;99.90;;;;;;5270535;28;20020;-71
2023/06/21 07:37:35;;;;;;;11.52;10.55;;;24.90;99.90;;;;;;5288615;28;20107;-72
2023/06/21 07:40:07;;;;;;;13.68;12.80;;;24.80;99.90;;;;;;5288625;28;20028;-72
2023/06/21 07:42:39;;;;;;;14.68;13.68;;;24.90;99.90;;;;;;5288527;28;20051;-72
2023/06/21 07:45:10;;;;;;;14.68;12.10;;;25.10;99.90;;;;;;5288703;28;20020;-72
2023/06/21 07:47:41;;;;;;;11.90;10.98;;;25.30;99.90;;;;;;5288272;28;20386;-72
2023/06/21 07:50:12;;;;;;;9.40;8.80;;;25.20;99.90;;;;;;5288361;28;20020;-72
2023/06/21 07:52:43;;;;;;;10.55;9.05;;;24.90;99.90;;;;;;5288498;28;20020;-72
2023/06/21 07:55:14;;;;;;;13.85;8.48;;;24.80;99.90;;;;;;5288547;28;20019;-72
2023/06/21 07:57:45;;;;;;;9.70;8.90;;;25.10;99.90;;;;;;5288117;28;20056;-72
2023/06/21 08:00:16;;;;;;;9.18;7.88;;;25.40;99.90;;;;;;5288494;28;20104;-72
2023/06/21 08:02:52;;;;;;;10.25;9.05;;;25.40;99.90;;;;;;5288239;28;20034;-72
2023/06/21 08:05:23;;;;;;;11.63;10.60;;;25.60;99.90;;;;;;5288508;28;20065;-72
2023/06/21 08:07:55;;;;;;;10.40;9.55;;;25.60;99.90;;;;;;5288442;28;20057;-72
2023/06/21 08:10:25;;;;;;;10.90;9.85;;;25.70;99.90;;;;;;5288271;28;20119;-72
2023/06/21 08:12:56;;;;;;;10.77;9.63;;;25.80;99.90;;;;;;5288254;28;20102;-72
2023/06/21 08:15:27;;;;;;;7.95;7.35;;;25.90;99.90;;;;;;5288302;28;20467;-72
2023/06/21 08:17:58;;;;;;;7.75;7.05;;;25.90;99.90;;;;;;5288099;28;20092;-71
2023/06/21 08:20:29;;;;;;;8.63;7.18;;;25.30;99.90;;;;;;5269876;28;20020;-72
2023/06/21 08:23:00;;;;;;;8.15;6.15;;;25.60;99.90;;;;;;5288199;28;20061;-72
2023/06/21 08:25:31;;;;;;;8.00;7.20;;;25.90;99.90;;;;;;5287956;28;20028;-72
2023/06/21 08:28:02;;;;;;;7.88;6.95;;;26.10;99.90;;;;;;5288001;28;20097;-72
2023/06/21 08:30:33;;;;;;;8.55;7.85;;;26.00;99.90;;;;;;5288348;28;20024;-72
2023/06/21 08:33:03;;;;;;;9.55;8.63;;;26.00;99.90;;;;;;5288308;28;20035;-72
2023/06/21 08:35:36;;;;;;;8.70;8.00;;;26.10;99.90;;;;;;5270155;28;20020;-71
2023/06/21 08:38:07;;;;;;;8.90;8.00;;;26.20;99.90;;;;;;5288193;28;20031;-72
2023/06/21 08:40:38;;;;;;;8.93;7.53;;;26.20;99.90;;;;;;5270011;28;20032;-72
2023/06/21 08:43:09;;;;;;;10.63;7.95;;;26.20;99.90;;;;;;5288121;28;20028;-72
2023/06/21 08:45:40;;;;;;;9.45;8.43;;;26.50;99.90;;;;;;5287958;28;20500;-72
2023/06/21 08:48:12;;;;;;;8.07;7.28;;;26.50;99.90;;;;;;5287773;28;20471;-72
2023/06/21 08:50:44;;;;;;;8.43;7.50;;;26.50;99.90;;;;;;5288095;28;20466;-72
2023/06/21 08:53:29;;;;;;;8.15;7.03;;;26.50;99.90;;;;;;5288115;28;20019;-72
2023/06/21 08:56:02;;;;;;;8.68;7.88;;;26.80;99.90;;;;;;5291635;28;20077;-72
2023/06/21 08:58:42;;;;;;;12.68;11.43;;;26.50;99.90;;;;;;5291463;28;20043;-71
2023/06/21 09:01:16;;;;;;;10.45;9.40;;;26.30;99.90;;;;;;5291605;28;20103;-72
2023/06/21 09:03:55;;;;;;;11.88;9.48;;;26.70;99.90;;;;;;5291527;28;20028;-72
2023/06/21 09:06:27;;;;;;;17.83;11.15;;;26.50;99.90;;;;;;5291374;28;20024;-72
2023/06/21 09:08:58;;;;;;;10.18;9.38;;;26.80;99.90;;;;;;5291379;28;20036;-72
2023/06/21 09:11:30;;;;;;;12.10;10.93;;;27.10;99.90;;;;;;5291381;28;20539;-71
2023/06/21 09:14:02;;;;;;;15.23;13.98;;;27.20;99.90;;;;;;5291211;28;20038;-71
2023/06/21 09:16:33;;;;;;;17.15;15.80;;;27.20;99.90;;;;;;5291217;28;20024;-72
2023/06/21 09:19:05;;;;;;;19.45;17.70;;;27.30;99.90;;;;;;5291112;28;20032;-72
2023/06/21 09:21:36;;;;;;;25.92;23.88;;;27.20;99.90;;;;;;5291148;28;20051;-71
2023/06/21 09:24:07;;;;;;;25.08;23.23;;;27.30;99.90;;;;;;5290948;28;20378;-71
2023/06/21 09:26:38;;;;;;;26.88;24.92;;;27.30;99.90;;;;;;5290899;28;20040;-71
2023/06/21 09:29:09;;;;;;;17.38;16.08;;;27.60;99.90;;;;;;5290930;28;20035;-72
2023/06/21 09:31:40;;;;;;;18.30;16.63;;;27.30;99.90;;;;;;5291027;28;20032;-72
2023/06/21 09:34:10;;;;;;;9.60;8.55;;;27.40;99.90;;;;;;5290834;28;20059;-71
2023/06/21 09:36:41;;;;;;;11.13;10.13;;;27.00;99.90;;;;;;5290718;28;20106;-72
2023/06/21 09:39:12;;;;;;;10.88;9.85;;;27.50;99.90;;;;;;5290930;28;20027;-72
2023/06/21 09:41:43;;;;;;;13.07;9.25;;;27.70;99.90;;;;;;5290760;28;20030;-72
2023/06/21 09:44:14;;;;;;;8.98;8.18;;;27.80;99.90;;;;;;5290978;28;20066;-72
2023/06/21 09:46:57;;;;;;;8.88;7.70;;;27.90;99.90;;;;;;5290737;28;20150;-72
2023/06/21 09:49:29;;;;;;;7.97;6.50;;;27.80;99.90;;;;;;5290534;28;20071;-72
2023/06/21 09:52:00;;;;;;;8.35;7.45;;;27.90;99.90;;;;;;5290620;28;20051;-72
2023/06/21 09:54:43;;;;;;;7.93;7.20;;;27.90;99.90;;;;;;5290913;28;20551;-72
2023/06/21 09:57:15;;;;;;;8.93;6.88;;;28.00;99.90;;;;;;5290079;28;20059;-72
2023/06/21 09:59:49;;;;;;;11.52;8.25;;;28.00;99.90;;;;;;5290282;28;20028;-72
2023/06/21 10:02:19;;;;;;;10.00;7.35;;;28.10;99.90;;;;;;5290381;28;20027;-72
2023/06/21 10:04:56;;;;;;;8.15;6.70;;;28.00;99.90;;;;;;5290203;28;20032;-72
2023/06/21 10:07:28;;;;;;;8.77;6.80;;;28.20;99.90;;;;;;5290105;28;20092;-72
2023/06/21 10:10:05;;;;;;;10.48;7.25;;;28.30;99.90;;;;;;5290081;28;20020;-72
2023/06/21 10:12:36;;;;;;;7.45;6.70;;;28.30;99.90;;;;;;5290223;28;20075;-72
2023/06/21 10:15:09;;;;;;;9.18;8.00;;;28.50;99.90;;;;;;5290206;28;20107;-72
2023/06/21 10:17:40;;;;;;;8.57;7.78;;;28.50;99.90;;;;;;5289878;28;20483;-72
2023/06/21 10:20:14;;;;;;;10.15;9.10;;;28.60;99.90;;;;;;5289892;28;20097;-72
2023/06/21 10:22:51;;;;;;;13.07;8.90;;;28.40;99.90;;;;;;5289885;28;20028;-72
2023/06/21 10:25:23;;;;;;;13.05;8.88;;;28.40;99.90;;;;;;5289824;28;20035;-72
2023/06/21 10:27:59;;;;;;;12.43;9.07;;;28.70;99.90;;;;;;5289530;28;20483;-72
2023/06/21 10:30:33;;;;;;;8.40;7.78;;;28.70;99.90;;;;;;5289750;28;20378;-72
2023/06/21 10:33:06;;;;;;;9.80;8.75;;;28.80;99.90;;;;;;5289662;28;20092;-72
2023/06/21 10:35:42;;;;;;;9.50;8.70;;;29.00;99.90;;;;;;5289592;28;20051;-72
2023/06/21 10:38:19;;;;;;;10.00;9.13;;;28.90;99.90;;;;;;5289678;28;20035;-72
2023/06/21 10:40:51;;;;;;;8.90;8.30;;;29.00;99.90;;;;;;5289650;28;20141;-72
2023/06/21 10:43:23;;;;;;;8.48;7.65;;;28.90;99.90;;;;;;5289612;28;20046;-72
2023/06/21 10:45:57;;;;;;;10.18;7.32;;;28.90;99.90;;;;;;5289211;28;20062;-73
2023/06/21 10:48:31;;;;;;;8.27;7.43;;;28.70;99.90;;;;;;5289216;28;20028;-72
2023/06/21 10:51:05;;;;;;;10.75;7.50;;;29.00;99.90;;;;;;5289322;28;20027;-72
2023/06/21 10:53:36;;;;;;;9.52;7.18;;;28.90;99.90;;;;;;5289528;28;20040;-72
2023/06/21 10:56:07;;;;;;;8.15;7.10;;;28.60;99.90;;;;;;5289560;28;20128;-72
2023/06/21 10:58:40;;;;;;;8.98;8.02;;;28.90;99.90;;;;;;5289449;28;20475;-72
2023/06/21 11:01:12;;;;;;;10.52;7.72;;;28.80;99.90;;;;;;5289265;28;20024;-72
2023/06/21 11:03:43;;;;;;;7.57;6.72;;;29.00;99.90;;;;;;5289146;28;20020;-72
2023/06/21 11:06:33;;;;;;;7.57;6.72;;;29.00;99.90;;;;;;5288998;28;20106;-72
2023/06/21 11:09:12;;;;;;;11.52;6.95;;;29.00;99.90;;;;;;5270844;28;20467;-72
2023/06/21 11:11:51;;;;;;;9.02;7.00;;;29.10;99.90;;;;;;5289073;28;20035;-72
2023/06/21 11:14:29;;;;;;;8.77;7.25;;;28.40;99.90;;;;;;5289167;28;20028;-72
2023/06/21 11:17:14;;;;;;;9.15;7.13;;;28.80;99.90;;;;;;5288553;28;20028;-72
2023/06/21 11:19:47;;;;;;;7.53;6.93;;;29.00;99.90;;;;;;5270650;28;20038;-73
2023/06/21 11:22:22;;;;;;;7.47;6.78;;;29.10;99.90;;;;;;5288807;28;20051;-72
2023/06/21 11:24:59;;;;;;;8.07;7.28;;;29.00;99.90;;;;;;5288705;28;20114;-72
2023/06/21 11:27:30;;;;;;;9.25;6.45;;;29.30;99.90;;;;;;5288376;28;20055;-72
2023/06/21 11:30:10;;;;;;;7.90;7.20;;;29.00;99.90;;;;;;5288512;28;20015;-72
2023/06/21 11:32:53;;;;;;;;;;;29.00;99.90;;;;;;5289002;28;20055;-72
2023/06/21 11:35:46;;;;;;;7.32;6.70;;;29.20;99.90;;;;;;5288481;28;20339;-72
2023/06/21 11:38:17;;;;;;;7.13;6.60;;;29.00;99.90;;;;;;5288660;28;20028;-72
2023/06/21 11:40:48;;;;;;;9.75;6.32;;;29.10;99.90;;;;;;5288681;28;20055;-72
2023/06/21 11:43:20;;;;;;;9.43;6.60;;;28.90;99.90;;;;;;5288287;28;20048;-72
2023/06/21 11:46:02;;;;;;;7.65;6.20;;;29.00;99.90;;;;;;5288370;28;20088;-72
2023/06/21 11:48:39;;;;;;;8.63;6.43;;;29.20;99.90;;;;;;5288472;28;20436;-72
2023/06/21 11:51:11;;;;;;;6.45;5.88;;;29.40;99.90;;;;;;5288553;28;20038;-72
2023/06/21 11:53:42;;;;;;;7.95;6.63;;;28.70;99.90;;;;;;5288239;28;20114;-72
2023/06/21 11:56:16;;;;;;;7.13;6.40;;;29.00;99.90;;;;;;5287963;28;20028;-72
2023/06/21 11:58:50;;;;;;;8.05;5.60;;;29.30;99.90;;;;;;5288424;28;20056;-72
2023/06/21 12:01:21;;;;;;;6.32;5.72;;;29.30;99.90;;;;;;5288649;28;20502;-72
2023/06/21 12:03:59;;;;;;;10.13;6.72;;;29.30;99.90;;;;;;5288322;28;20051;-72
2023/06/21 12:06:30;;;;;;;7.68;6.28;;;29.30;99.90;;;;;;5288008;28;20062;-72
2023/06/21 12:09:00;;;;;;;9.05;6.63;;;29.20;99.90;;;;;;5288191;28;20067;-72
2023/06/21 12:11:31;;;;;;;7.78;6.63;;;29.40;99.90;;;;;;5288194;28;20038;-72
2023/06/21 12:14:06;;;;;;;8.63;6.68;;;29.50;99.90;;;;;;5288153;28;20032;-72
2023/06/21 12:16:36;;;;;;;9.35;6.38;;;29.40;99.90;;;;;;5288027;28;20023;-72
2023/06/21 12:19:11;;;;;;;9.18;6.60;;;29.50;99.90;;;;;;5288335;28;20370;-72
2023/06/21 12:21:42;;;;;;;9.00;6.40;;;29.50;99.90;;;;;;5288172;28;20034;-72
2023/06/21 12:24:13;;;;;;;7.47;6.10;;;29.30;99.90;;;;;;5288019;28;20024;-72
2023/06/21 12:26:50;;;;;;;6.95;6.38;;;29.60;99.90;;;;;;5287882;28;20481;-72
2023/06/21 12:29:21;;;;;;;9.65;6.30;;;29.60;99.90;;;;;;5289349;28;20429;-72
2023/06/21 12:31:53;;;;;;;7.07;6.13;;;29.50;99.90;;;;;;5292394;28;20103;-72
2023/06/21 12:34:24;;;;;;;7.20;6.13;;;29.60;99.90;;;;;;5292294;28;20024;-72
2023/06/21 12:36:58;;;;;;;7.75;6.40;;;29.60;99.90;;;;;;5291988;28;20084;-72
2023/06/21 12:39:29;;;;;;;6.60;5.90;;;29.70;99.90;;;;;;5291928;28;20478;-72
2023/06/21 12:42:00;;;;;;;7.78;6.57;;;29.60;99.90;;;;;;5291869;28;20061;-72
2023/06/21 12:44:31;;;;;;;7.53;6.25;;;29.50;99.90;;;;;;5291887;28;20131;-72
2023/06/21 12:47:05;;;;;;;7.10;6.40;;;29.60;99.90;;;;;;5291623;28;20027;-72
2023/06/21 12:49:36;;;;;;;7.10;6.40;;;29.60;99.90;;;;;;5291848;28;20019;-72
2023/06/21 12:52:07;;;;;;;6.80;6.18;;;29.50;99.90;;;;;;5291846;28;20024;-72
2023/06/21 12:54:55;;;;;;;7.53;5.97;;;29.60;99.90;;;;;;5291867;28;20370;-72
2023/06/21 12:57:31;;;;;;;9.00;7.00;;;29.60;99.90;;;;;;5291452;28;20062;-72
2023/06/21 13:00:02;;;;;;;8.85;7.00;;;29.80;99.90;;;;;;5291602;28;20027;-73
2023/06/21 13:02:33;;;;;;;7.22;6.40;;;29.70;99.90;;;;;;5273576;28;20031;-72
2023/06/21 13:05:05;;;;;;;7.85;6.53;;;29.80;99.90;;;;;;5291537;28;20447;-72